Aviation Digital Data Service (ADDS)

Output produced by METARs form (2303 UTC 23 May 2022)
found at http://www.aviationweather.gov/metar/data/
 
DIBK 232200Z 16004KT 8000 TS FEW013 FEW020CB 25/24 Q1014 NOSIG
TAF COR DIBK 231848Z 2318/2418 VRB02KT 9999 SCT013 
     PROB30 
     TEMPO 2415/2418 BKN013 FEW025CB
       
DIAP 232300Z 18006KT 9999 FEW012 SCT018 27/25 Q1013 NOSIG
TAF DIAP 231754Z 2318/2424 23010KT 9999 SCT012 
     TEMPO 2318/2320 BKN012 FEW020CB 
     PROB30 
     TEMPO 2415/2420 TS BKN012 FEW020CB
       
DIYO 232200Z 22004KT 9999 TS SCT011 FEW020CB 24/23 Q1014 NOSIG
TAF COR DIYO 231848Z 2318/2418 VRB03KT 9999 SCT013 
     PROB30 
     TEMPO 2415/2418 BKN013 FEW025CB